Terminal Aerodrome Forecast
Issued by NWS Portland, OR

Home | Current Version | Previous Version | Text Only | Print | Product List | Glossary On
Versions: 1 2 3 4 5 6 7 8 9 10 11 12 13 14 15 16 17 18 19 20 21 22 23 24 25 26 27 28
004
FTUS46 KPQR 251141
TAFHIO
TAF
KHIO 251141Z 2512/2612 32005KT P6SM BKN060
     FM251600 29004KT P6SM BKN025 BKN045 OVC060
     FM252000 31005KT P6SM SCT040 BKN060
     FM260100 31010KT P6SM BKN050
     FM260800 30003KT P6SM BKN040=

USA.gov is the U.S. government's official web portal to all federal, state and local government web resources and services.